createdAt,value
2023-05-21T00:05:53.933Z,4.8
2023-05-21T00:11:54.571Z,4.8
2023-05-21T00:17:55.094Z,4.8
2023-05-21T00:23:54.441Z,4.8
2023-05-21T00:29:54.185Z,4.7
2023-05-21T00:35:54.947Z,4.7
2023-05-21T00:41:55.486Z,4.6
2023-05-21T00:47:54.453Z,4.7
2023-05-21T00:53:54.587Z,4.6
2023-05-21T00:59:54.492Z,4.6
2023-05-21T01:05:54.851Z,4.6
2023-05-21T01:17:54.905Z,4.5
2023-05-21T01:23:55.149Z,4.5
2023-05-21T01:35:53.948Z,4.4
2023-05-21T01:41:53.905Z,4.4
2023-05-21T01:47:54.489Z,4.4
2023-05-21T01:53:54.188Z,4.3
2023-05-21T01:59:54.339Z,4.3
2023-05-21T02:05:56.725Z,4.3
2023-05-21T02:17:54.564Z,4.2
2023-05-21T02:23:54.517Z,4.2
2023-05-21T02:29:54.774Z,4.2
2023-05-21T02:35:54.716Z,4.1
2023-05-21T02:41:55.185Z,4.2
2023-05-21T02:47:53.931Z,4.1
2023-05-21T02:53:54.939Z,4.1
2023-05-21T02:59:54.768Z,4.1
2023-05-21T03:05:54.053Z,4
2023-05-21T03:11:54.404Z,4.1
2023-05-21T03:17:54.538Z,4
2023-05-21T03:23:55.266Z,4
2023-05-21T03:29:54.463Z,4
2023-05-21T03:35:54.177Z,4.1
2023-05-21T03:41:54.529Z,4.1
2023-05-21T03:47:54.092Z,4.1
2023-05-21T03:53:53.958Z,4.1
2023-05-21T03:59:54.980Z,4.1
2023-05-21T04:05:54.433Z,4.1
2023-05-21T04:11:53.945Z,4.1
2023-05-21T04:17:54.245Z,4.1
2023-05-21T04:23:54.590Z,4.1
2023-05-21T04:29:53.915Z,4.2
2023-05-21T04:35:54.032Z,4.2
2023-05-21T04:47:54.500Z,4.2
2023-05-21T04:53:54.297Z,4.1
2023-05-21T04:59:54.119Z,4.2
2023-05-21T05:05:54.179Z,4.2
2023-05-21T05:17:53.861Z,4.2
2023-05-21T05:23:54.726Z,4.2
2023-05-21T05:29:54.995Z,4.4
2023-05-21T05:35:54.417Z,4.4
2023-05-21T05:41:54.641Z,4.4
2023-05-21T05:47:55.259Z,4.4
2023-05-21T05:53:54.930Z,4.5
2023-05-21T05:59:54.421Z,4.6
2023-05-21T06:05:54.479Z,4.4
2023-05-21T06:11:54.309Z,4.5
2023-05-21T06:17:54.220Z,4.6
2023-05-21T06:23:54.703Z,4.8
2023-05-21T06:29:54.050Z,5
2023-05-21T06:35:54.818Z,5
2023-05-21T06:47:54.260Z,5.2
2023-05-21T06:53:55.646Z,5.5
2023-05-21T06:59:54.205Z,5.5
2023-05-21T07:05:56.896Z,5.5
2023-05-21T07:17:54.478Z,5.6
2023-05-21T07:23:54.522Z,5.8
2023-05-21T07:29:54.414Z,5.7
2023-05-21T07:35:54.573Z,5.9
2023-05-21T07:47:54.391Z,5.8
2023-05-21T07:59:54.351Z,6
2023-05-21T08:05:55.634Z,5.8
2023-05-21T08:11:53.955Z,5.8
2023-05-21T08:17:54.786Z,6
2023-05-21T08:23:54.383Z,6
2023-05-21T08:29:53.915Z,5.8
2023-05-21T08:35:54.738Z,6
2023-05-21T08:41:54.233Z,5.8
2023-05-21T08:47:54.837Z,5.7
2023-05-21T08:53:53.986Z,5.8
2023-05-21T08:59:54.360Z,6.2
2023-05-21T09:05:55.623Z,6.1
2023-05-21T09:11:53.932Z,6.2
2023-05-21T09:17:54.388Z,6.6
2023-05-21T09:23:54.574Z,6.6
2023-05-21T09:29:55.133Z,6.4
2023-05-21T09:35:54.009Z,7
2023-05-21T09:41:54.175Z,6.9
2023-05-21T09:47:54.522Z,6.9
2023-05-21T09:53:53.941Z,6.9
2023-05-21T09:59:54.895Z,7.4
2023-05-21T10:05:54.186Z,7.1
2023-05-21T10:11:55.179Z,7.5
2023-05-21T10:17:54.059Z,7.7
2023-05-21T10:23:54.470Z,7.6
2023-05-21T10:29:54.769Z,7.8
2023-05-21T10:35:55.119Z,6.8
2023-05-21T10:47:54.496Z,7.3
2023-05-21T10:53:53.708Z,7.8
2023-05-21T10:59:53.768Z,8.3
2023-05-21T11:05:54.499Z,8.9
2023-05-21T11:11:54.677Z,8.7
2023-05-21T11:17:54.402Z,9.1
2023-05-21T11:23:53.918Z,9.1
2023-05-21T11:29:53.838Z,8.2
2023-05-21T11:35:53.993Z,9
2023-05-21T11:41:54.086Z,9
2023-05-21T11:47:55.062Z,8.5
2023-05-21T11:53:54.494Z,9.2
2023-05-21T11:59:54.732Z,9.4
2023-05-21T12:05:56.075Z,9.3
2023-05-21T12:11:54.126Z,9.6
2023-05-21T12:17:54.183Z,8.9
2023-05-21T12:23:54.502Z,9.3
2023-05-21T12:29:54.867Z,9.3
2023-05-21T12:35:54.505Z,9.9
2023-05-21T12:47:55.500Z,10
2023-05-21T12:53:54.892Z,9.9
2023-05-21T12:59:55.529Z,10.2
2023-05-21T13:05:54.683Z,10.3
2023-05-21T13:11:55.036Z,10.6
2023-05-21T13:17:56.629Z,10.4
2023-05-21T13:23:54.772Z,11.4
2023-05-21T13:29:54.108Z,10.9
2023-05-21T13:35:54.023Z,11.6
2023-05-21T13:41:54.263Z,11.4
2023-05-21T13:47:54.318Z,11.6
2023-05-21T13:53:56.720Z,11.5
2023-05-21T13:59:54.728Z,11.3
2023-05-21T14:05:54.933Z,11.3
2023-05-21T14:11:54.352Z,11.8
2023-05-21T14:17:54.654Z,12
2023-05-21T14:23:54.744Z,12.1
2023-05-21T14:35:54.070Z,11.8
2023-05-21T14:41:54.013Z,12.2
2023-05-21T14:47:54.640Z,13.2
2023-05-21T14:53:54.487Z,14
2023-05-21T14:59:54.093Z,14.6
2023-05-21T15:05:54.268Z,14.7
2023-05-21T15:11:56.772Z,14.6
2023-05-21T15:17:54.474Z,14.1
2023-05-21T15:23:54.160Z,14.6
2023-05-21T15:29:54.820Z,15.4
2023-05-21T15:41:54.854Z,17.6
2023-05-21T15:47:54.588Z,16.3
2023-05-21T15:53:54.488Z,12.2
2023-05-21T15:59:54.152Z,10.8
2023-05-21T16:05:54.322Z,8.3
2023-05-21T16:11:54.374Z,8.2
2023-05-21T16:17:55.042Z,7.2
2023-05-21T16:23:54.662Z,6.5
2023-05-21T16:29:55.053Z,6.6
2023-05-21T16:35:54.116Z,6.4
2023-05-21T16:41:54.573Z,6.2
2023-05-21T16:47:54.885Z,6
2023-05-21T16:53:54.962Z,6
2023-05-21T16:59:54.463Z,6.6
2023-05-21T17:05:54.221Z,6.8
2023-05-21T17:11:54.216Z,6.7
2023-05-21T17:17:54.992Z,7
2023-05-21T17:23:54.759Z,6.5
2023-05-21T17:29:54.317Z,6.5
2023-05-21T17:35:54.359Z,6.3
2023-05-21T17:41:54.430Z,5.9
2023-05-21T17:47:56.129Z,5.5
2023-05-21T17:53:54.394Z,5.5
2023-05-21T17:59:54.486Z,5.4
2023-05-21T18:05:55.726Z,5.3
2023-05-21T18:11:54.550Z,5.1
2023-05-21T18:17:54.472Z,4.6
2023-05-21T18:23:54.471Z,4.6
2023-05-21T18:29:54.357Z,4.7
2023-05-21T18:35:54.204Z,4.8
2023-05-21T18:47:54.529Z,4.8
2023-05-21T18:53:54.621Z,4.8
2023-05-21T18:59:54.287Z,4.8
2023-05-21T19:05:54.747Z,4.7
2023-05-21T19:11:54.514Z,4.6
2023-05-21T19:17:55.513Z,4.6
2023-05-21T19:23:54.745Z,4.5
2023-05-21T19:29:54.228Z,4.4
2023-05-21T19:35:54.369Z,4.2
2023-05-21T19:47:54.492Z,4.2
2023-05-21T19:53:54.392Z,4.1
2023-05-21T19:59:54.308Z,4
2023-05-21T20:05:54.063Z,3.9
2023-05-21T20:17:54.353Z,3.9
2023-05-21T20:23:54.863Z,3.9
2023-05-21T20:29:54.314Z,3.8
2023-05-21T20:35:54.896Z,3.8
2023-05-21T20:41:54.209Z,3.8
2023-05-21T20:53:54.436Z,3.6
2023-05-21T20:59:54.397Z,3.5
2023-05-21T21:05:54.341Z,3.5
2023-05-21T21:11:54.844Z,3.5
2023-05-21T21:17:55.099Z,3.5
2023-05-21T21:23:54.390Z,3.4
2023-05-21T21:29:54.200Z,3.5
2023-05-21T21:35:55.778Z,3.4
2023-05-21T21:41:54.248Z,3.3
2023-05-21T21:47:54.648Z,3.3
2023-05-21T21:53:55.500Z,3.3
2023-05-21T21:59:54.872Z,3.4
2023-05-21T22:05:54.376Z,3.4
2023-05-21T22:11:54.261Z,3.4
2023-05-21T22:17:55.169Z,3.3
2023-05-21T22:23:55.425Z,3.3
2023-05-21T22:29:54.257Z,3.3
2023-05-21T22:35:54.690Z,3.2
2023-05-21T22:41:54.290Z,3.3
2023-05-21T22:47:54.276Z,3.2
2023-05-21T22:53:54.220Z,3.2
2023-05-21T22:59:55.247Z,3.2
2023-05-21T23:05:54.458Z,3.2
2023-05-21T23:11:54.116Z,3.1
2023-05-21T23:17:54.300Z,3.2
2023-05-21T23:23:54.625Z,3.2
2023-05-21T23:29:54.854Z,3.2
2023-05-21T23:35:54.395Z,3.2
2023-05-21T23:41:54.381Z,3.2
2023-05-21T23:47:54.835Z,3.3
2023-05-21T23:53:54.458Z,3.2
2023-05-21T23:59:55.382Z,3.2
